createdAt,value
2022-09-07T00:01:14.206Z,3.55
2022-09-07T00:04:01.278Z,3.25
2022-09-07T00:06:48.189Z,3.53
2022-09-07T00:09:35.191Z,3.25
2022-09-07T00:12:22.311Z,3.58
2022-09-07T00:15:02.229Z,4.10
2022-09-07T00:17:42.805Z,3.33
2022-09-07T00:20:55.200Z,3.00
2022-09-07T00:23:37.376Z,3.30
2022-09-07T00:26:30.191Z,3.47
2022-09-07T00:29:18.192Z,3.47
2022-09-07T00:31:58.610Z,3.30
2022-09-07T00:34:45.193Z,3.45
2022-09-07T00:37:25.783Z,3.55
2022-09-07T00:40:12.290Z,3.13
2022-09-07T00:42:52.683Z,2.83
2022-09-07T00:45:39.152Z,4.35
2022-09-07T00:48:20.854Z,2.95
2022-09-07T00:51:12.161Z,2.75
2022-09-07T00:54:00.766Z,4.18
2022-09-07T00:56:51.160Z,2.85
2022-09-07T00:59:36.312Z,3.15
2022-09-07T01:02:24.230Z,3.28
2022-09-07T01:05:18.161Z,2.83
2022-09-07T01:07:58.240Z,2.37
2022-09-07T01:10:45.163Z,2.88
2022-09-07T01:13:25.241Z,2.95
2022-09-07T01:16:34.139Z,2.80
2022-09-07T01:19:50.330Z,2.97
2022-09-07T01:22:58.185Z,3.03
2022-09-07T01:26:06.267Z,3.40
2022-09-07T01:28:56.132Z,3.67
2022-09-07T01:32:01.125Z,3.10
2022-09-07T01:34:49.571Z,3.03
2022-09-07T01:38:00.105Z,3.00
2022-09-07T01:41:01.041Z,3.15
2022-09-07T01:43:59.104Z,3.15
2022-09-07T01:46:49.909Z,3.33
2022-09-07T01:49:44.062Z,3.78
2022-09-07T01:53:06.105Z,3.40
2022-09-07T01:56:03.203Z,3.35
2022-09-07T01:59:01.074Z,3.97
2022-09-07T02:02:12.232Z,3.53
2022-09-07T02:05:02.083Z,4.88
2022-09-07T02:07:58.067Z,5.60
2022-09-07T02:11:03.770Z,5.18
2022-09-07T02:13:55.076Z,5.30
2022-09-07T02:16:42.316Z,4.85
2022-09-07T02:19:32.066Z,5.88
2022-09-07T02:22:18.589Z,6.72
2022-09-07T02:25:09.035Z,6.45
2022-09-07T02:28:18.069Z,7.18
2022-09-07T02:30:59.241Z,8.20
2022-09-07T02:33:47.011Z,8.48
2022-09-07T02:36:40.069Z,9.23
2022-09-07T02:39:27.068Z,9.48
2022-09-07T02:42:07.531Z,9.35
2022-09-07T02:44:56.036Z,8.32
2022-09-07T02:47:42.319Z,8.77
2022-09-07T02:50:55.026Z,8.90
2022-09-07T02:53:48.621Z,8.00
2022-09-07T02:56:56.025Z,7.90
2022-09-07T02:59:52.947Z,6.88
2022-09-07T03:02:40.119Z,7.38
2022-09-07T03:05:35.174Z,7.03
2022-09-07T03:26:19.398Z,11.02
2022-09-07T03:29:06.433Z,12.20
2022-09-07T03:31:53.463Z,12.68
2022-09-07T03:34:40.382Z,12.70
2022-09-07T03:37:20.587Z,11.73
2022-09-07T03:40:07.474Z,10.93
2022-09-07T03:42:54.397Z,11.30
2022-09-07T03:45:41.438Z,10.65
2022-09-07T03:48:28.506Z,10.77
2022-09-07T03:51:11.166Z,9.25
2022-09-07T03:53:59.359Z,11.68
2022-09-07T03:56:46.414Z,10.98
2022-09-07T03:59:33.383Z,10.00
2022-09-07T04:02:14.495Z,9.82
2022-09-07T04:05:01.403Z,8.23
2022-09-07T04:07:48.377Z,10.02
2022-09-07T04:10:35.363Z,8.35
2022-09-07T04:13:22.373Z,7.20
2022-09-07T04:16:03.483Z,7.07
2022-09-07T04:18:50.392Z,7.82
2022-09-07T04:21:32.551Z,7.57
2022-09-07T04:24:24.346Z,7.63
2022-09-07T04:27:11.316Z,7.78
2022-09-07T04:29:58.393Z,8.80
2022-09-07T04:32:38.482Z,9.98
2022-09-07T04:35:25.343Z,9.75
2022-09-07T04:38:12.356Z,8.90
2022-09-07T04:41:06.574Z,6.78
2022-09-07T04:43:54.352Z,8.57
2022-09-07T04:46:43.328Z,7.25
2022-09-07T04:49:30.315Z,9.18
2022-09-07T04:52:17.330Z,8.45
2022-09-07T04:54:58.439Z,8.90
2022-09-07T04:57:46.336Z,7.13
2022-09-07T05:00:27.230Z,7.20
2022-09-07T05:03:14.336Z,9.05
2022-09-07T05:05:54.401Z,15.98
2022-09-07T05:08:53.366Z,30.13
2022-09-07T05:11:34.419Z,63.50
2022-09-07T05:14:21.309Z,62.08
2022-09-07T05:17:08.309Z,33.65
2022-09-07T05:19:55.306Z,73.47
2022-09-07T05:22:42.314Z,86.97
2022-09-07T05:25:36.264Z,33.70
2022-09-07T05:28:23.312Z,37.00
2022-09-07T05:31:18.328Z,59.33
2022-09-07T05:37:14.285Z,28.58
2022-09-07T05:40:03.370Z,27.17
2022-09-07T05:42:43.371Z,23.73
2022-09-07T05:45:30.313Z,23.13
2022-09-07T05:48:10.485Z,23.85
2022-09-07T05:50:59.248Z,22.27
2022-09-07T05:53:48.818Z,21.70
2022-09-07T05:56:35.248Z,21.17
2022-09-07T05:59:15.412Z,21.27
2022-09-07T06:02:02.409Z,19.85
2022-09-07T06:04:42.373Z,19.45
2022-09-07T06:07:29.255Z,18.55
2022-09-07T06:13:16.679Z,16.55
2022-09-07T06:16:03.246Z,18.73
2022-09-07T06:18:46.995Z,62.33
2022-09-07T06:21:36.267Z,69.65
2022-09-07T06:24:30.230Z,20.92
2022-09-07T06:27:17.258Z,15.45
2022-09-07T06:30:04.311Z,14.05
2022-09-07T06:32:51.348Z,9.30
2022-09-07T06:35:31.236Z,10.50
2022-09-07T06:38:11.628Z,32.75
2022-09-07T06:43:58.729Z,2.47
2022-09-07T06:49:52.210Z,2.67
2022-09-07T06:55:39.218Z,3.72
2022-09-07T06:58:19.421Z,2.75
2022-09-07T07:01:13.249Z,2.22
2022-09-07T07:03:53.562Z,3.00
2022-09-07T07:06:42.213Z,2.95
2022-09-07T07:09:22.316Z,2.63
2022-09-07T07:12:09.183Z,2.45
2022-09-07T07:14:49.321Z,3.28
2022-09-07T07:17:36.230Z,2.35
2022-09-07T07:20:23.186Z,2.67
2022-09-07T07:23:10.202Z,2.83
2022-09-07T07:26:04.212Z,2.47
2022-09-07T07:29:00.742Z,2.92
2022-09-07T07:31:49.165Z,2.85
2022-09-07T07:34:29.670Z,2.80
2022-09-07T07:37:16.150Z,2.78
2022-09-07T07:43:04.357Z,3.22
2022-09-07T07:46:03.903Z,3.85
2022-09-07T07:48:52.124Z,2.78
2022-09-07T07:52:49.898Z,2.85
2022-09-07T07:54:33.146Z,3.30
2022-09-07T07:57:13.262Z,2.65
2022-09-07T08:00:00.125Z,3.05
2022-09-07T08:02:52.221Z,2.80
2022-09-07T08:05:42.146Z,3.13
2022-09-07T08:08:29.087Z,4.07
2022-09-07T08:11:14.828Z,3.65
2022-09-07T08:14:07.086Z,2.85
2022-09-07T08:16:47.782Z,3.03
2022-09-07T08:19:34.165Z,3.15
2022-09-07T08:22:14.592Z,3.35
2022-09-07T08:25:01.140Z,3.53
2022-09-07T08:27:48.074Z,3.38
2022-09-07T08:30:35.095Z,3.97
2022-09-07T08:33:15.778Z,3.15
2022-09-07T08:36:09.090Z,3.92
2022-09-07T08:38:49.513Z,3.33
2022-09-07T08:41:39.103Z,2.88
2022-09-07T08:44:27.319Z,3.10
2022-09-07T08:47:21.039Z,3.22
2022-09-07T08:50:13.086Z,3.20
2022-09-07T08:52:55.135Z,3.00
2022-09-07T08:55:56.031Z,3.05
2022-09-07T08:59:03.042Z,2.38
2022-09-07T09:02:26.304Z,3.17
2022-09-07T09:07:55.212Z,2.75
2022-09-07T09:11:01.062Z,2.42
2022-09-07T09:14:09.090Z,2.50
2022-09-07T09:17:28.061Z,2.30
2022-09-07T09:20:33.050Z,3.20
2022-09-07T09:23:23.053Z,2.85
2022-09-07T09:26:25.023Z,2.53
2022-09-07T09:29:17.460Z,2.50
2022-09-07T09:32:03.990Z,2.30
2022-09-07T09:35:01.223Z,2.42
2022-09-07T09:37:53.024Z,2.35
2022-09-07T09:40:42.053Z,2.42
2022-09-07T09:43:28.145Z,2.35
2022-09-07T09:46:34.038Z,2.72
2022-09-07T09:49:27.138Z,2.92
2022-09-07T09:52:38.140Z,2.10
2022-09-07T09:55:43.985Z,2.63
2022-09-07T10:04:41.987Z,2.85
2022-09-07T10:07:34.019Z,2.42
2022-09-07T10:10:23.121Z,3.30
2022-09-07T10:13:09.991Z,3.15
2022-09-07T10:16:02.996Z,2.60
2022-09-07T10:19:07.016Z,2.65
2022-09-07T10:21:47.133Z,2.67
2022-09-07T10:24:38.960Z,2.72
2022-09-07T10:27:36.092Z,2.40
2022-09-07T10:30:22.943Z,2.80
2022-09-07T10:33:40.811Z,3.05
2022-09-07T10:36:42.965Z,2.58
2022-09-07T10:39:32.631Z,2.72
2022-09-07T10:42:28.959Z,2.60
2022-09-07T10:45:34.073Z,3.00
2022-09-07T10:48:49.929Z,2.42
2022-09-07T10:51:54.304Z,2.55
2022-09-07T10:55:23.922Z,2.65
2022-09-07T10:59:01.330Z,3.25
2022-09-07T11:01:45.929Z,3.30
2022-09-07T11:05:16.933Z,2.97
2022-09-07T11:12:08.954Z,3.22
2022-09-07T11:15:18.943Z,3.38
2022-09-07T11:18:24.060Z,3.22
2022-09-07T11:24:39.914Z,3.05
2022-09-07T11:27:45.929Z,4.55
2022-09-07T11:30:49.998Z,3.85
2022-09-07T11:33:41.288Z,3.25
2022-09-07T11:36:23.321Z,3.38
2022-09-07T11:39:34.930Z,4.22
2022-09-07T11:42:45.217Z,4.55
2022-09-07T11:45:57.985Z,3.75
2022-09-07T11:48:53.736Z,5.22
2022-09-07T11:52:15.872Z,3.38
2022-09-07T11:55:02.346Z,4.07
2022-09-07T11:58:25.916Z,3.53
2022-09-07T12:01:47.889Z,3.17
2022-09-07T12:04:31.051Z,3.55
2022-09-07T12:07:35.892Z,3.88
2022-09-07T12:10:37.878Z,3.30
2022-09-07T12:14:03.926Z,3.92
2022-09-07T12:17:08.229Z,3.10
2022-09-07T12:20:29.848Z,3.65
2022-09-07T12:23:12.956Z,4.32
2022-09-07T12:26:37.840Z,3.42
2022-09-07T12:29:33.860Z,3.50
2022-09-07T12:32:57.457Z,3.38
2022-09-07T12:35:47.879Z,4.15
2022-09-07T12:38:37.838Z,4.38
2022-09-07T12:42:31.948Z,2.97
2022-09-07T12:45:34.834Z,4.07
2022-09-07T12:48:14.938Z,3.28
2022-09-07T12:55:16.287Z,3.55
2022-09-07T12:58:09.826Z,4.22
2022-09-07T13:01:05.624Z,3.80
2022-09-07T13:03:58.862Z,4.13
2022-09-07T13:07:09.143Z,3.40
2022-09-07T13:10:10.815Z,3.25
2022-09-07T13:12:57.737Z,3.45
2022-09-07T13:15:48.850Z,3.58
2022-09-07T13:18:41.795Z,3.78
2022-09-07T13:21:41.856Z,3.73
2022-09-07T13:27:33.844Z,4.45
2022-09-07T13:30:22.911Z,3.95
2022-09-07T13:33:31.949Z,2.88
2022-09-07T13:36:22.885Z,3.45
2022-09-07T13:39:14.889Z,3.40
2022-09-07T13:42:01.804Z,3.47
2022-09-07T13:44:48.778Z,3.50
2022-09-07T13:48:17.774Z,3.38
2022-09-07T13:51:10.775Z,3.35
2022-09-07T13:54:02.886Z,3.08
2022-09-07T13:57:04.749Z,3.38
2022-09-07T13:59:54.775Z,4.05
2022-09-07T14:02:38.576Z,3.33
2022-09-07T14:05:31.918Z,3.38
2022-09-07T14:08:29.616Z,3.28
2022-09-07T14:11:16.915Z,3.63
2022-09-07T14:14:21.901Z,3.58
2022-09-07T14:17:14.777Z,2.80
2022-09-07T14:19:59.695Z,4.05
2022-09-07T14:22:53.258Z,3.60
2022-09-07T14:28:47.978Z,3.45
2022-09-07T14:31:35.942Z,4.63
2022-09-07T14:34:22.722Z,3.72
2022-09-07T14:37:13.792Z,4.00
2022-09-07T14:39:57.061Z,3.60
2022-09-07T14:42:49.892Z,3.42
2022-09-07T14:45:29.816Z,3.92
2022-09-07T14:48:20.735Z,3.85
2022-09-07T14:51:34.744Z,5.57
2022-09-07T14:54:26.721Z,3.25
2022-09-07T14:57:12.789Z,3.75
2022-09-07T15:00:00.779Z,3.90
2022-09-07T15:02:43.803Z,3.60
2022-09-07T15:05:34.440Z,4.18
2022-09-07T15:08:26.871Z,3.80
2022-09-07T15:28:01.445Z,3.90
2022-09-07T15:31:40.450Z,3.92
2022-09-07T15:33:55.385Z,3.50
2022-09-07T15:36:37.282Z,3.20
2022-09-07T15:39:31.509Z,3.22
2022-09-07T15:45:26.368Z,4.00
2022-09-07T15:48:06.941Z,3.28
2022-09-07T15:50:54.040Z,3.25
2022-09-07T15:56:44.440Z,3.67
2022-09-07T15:59:43.751Z,3.92
2022-09-07T16:05:39.915Z,2.90
2022-09-07T16:08:32.709Z,3.05
2022-09-07T16:11:27.360Z,3.53
2022-09-07T16:14:12.379Z,3.75
2022-09-07T16:20:02.107Z,3.88
2022-09-07T16:26:14.313Z,3.70
2022-09-07T16:29:02.365Z,3.53
2022-09-07T16:34:42.415Z,3.85
2022-09-07T16:37:29.326Z,3.20
2022-09-07T16:40:10.476Z,4.10
2022-09-07T16:42:58.305Z,3.83
2022-09-07T16:48:45.358Z,3.30
2022-09-07T16:51:28.634Z,3.13
2022-09-07T16:54:18.319Z,3.60
2022-09-07T16:57:05.311Z,3.33
2022-09-07T16:59:52.274Z,4.05
2022-09-07T17:02:39.303Z,3.50
2022-09-07T17:05:19.637Z,3.30
2022-09-07T17:08:06.287Z,3.63
2022-09-07T17:10:53.318Z,3.25
2022-09-07T17:13:33.406Z,3.20
2022-09-07T17:16:29.357Z,3.67
2022-09-07T17:19:34.792Z,4.15
2022-09-07T17:22:21.422Z,4.30
2022-09-07T17:25:01.286Z,3.92
2022-09-07T17:27:48.425Z,3.35
2022-09-07T17:30:28.241Z,3.90
2022-09-07T17:33:15.314Z,2.60
2022-09-07T17:36:02.266Z,3.33
2022-09-07T17:41:42.270Z,6.72
2022-09-07T17:44:23.468Z,5.07
2022-09-07T17:47:10.258Z,3.58
2022-09-07T17:49:57.281Z,4.00
2022-09-07T17:52:40.320Z,3.05
2022-09-07T17:55:29.269Z,6.07
2022-09-07T17:58:09.682Z,3.33
2022-09-07T18:00:56.264Z,3.22
2022-09-07T18:03:43.397Z,3.13
2022-09-07T18:06:23.241Z,3.28
2022-09-07T18:09:05.297Z,3.80
2022-09-07T18:11:52.245Z,3.17
2022-09-07T18:14:39.325Z,3.00
2022-09-07T18:17:19.546Z,3.05
2022-09-07T18:20:06.222Z,3.88
2022-09-07T18:22:46.400Z,3.15
2022-09-07T18:25:34.344Z,3.05
2022-09-07T18:31:21.293Z,2.88
2022-09-07T18:34:01.877Z,2.95
2022-09-07T18:36:48.198Z,2.53
2022-09-07T18:39:35.542Z,3.10
2022-09-07T18:42:23.195Z,3.15
2022-09-07T18:48:13.227Z,2.83
2022-09-07T18:51:01.151Z,2.78
2022-09-07T18:53:41.377Z,2.90
2022-09-07T18:56:28.189Z,2.78
2022-09-07T18:59:09.668Z,3.35
2022-09-07T19:02:00.080Z,2.83
2022-09-07T19:07:51.335Z,2.97
2022-09-07T19:10:38.280Z,3.08
2022-09-07T19:13:18.813Z,2.80
2022-09-07T19:16:05.269Z,3.13
2022-09-07T19:18:47.624Z,3.40
2022-09-07T19:21:37.149Z,2.97
2022-09-07T19:24:25.174Z,2.88
2022-09-07T19:27:14.149Z,2.88
2022-09-07T19:30:01.132Z,3.53
2022-09-07T19:32:41.303Z,3.20
2022-09-07T19:35:28.105Z,3.40
2022-09-07T19:38:08.281Z,3.40
2022-09-07T19:41:05.130Z,3.70
2022-09-07T19:43:52.166Z,3.13
2022-09-07T19:46:32.600Z,3.92
2022-09-07T19:49:20.123Z,3.92
2022-09-07T19:52:07.318Z,3.88
2022-09-07T19:54:47.105Z,3.95
2022-09-07T19:57:35.121Z,3.58
2022-09-07T20:00:23.106Z,3.20
2022-09-07T20:03:10.112Z,3.63
2022-09-07T20:05:50.312Z,5.15
2022-09-07T20:08:37.189Z,4.80
2022-09-07T20:11:21.255Z,3.72
2022-09-07T20:14:08.119Z,3.60
2022-09-07T20:16:48.243Z,3.25
2022-09-07T20:19:35.101Z,3.53
2022-09-07T20:22:15.218Z,3.15
2022-09-07T20:25:02.093Z,3.30
2022-09-07T20:27:42.211Z,4.18
2022-09-07T20:30:33.702Z,3.42
2022-09-07T20:33:14.201Z,3.63
2022-09-07T20:36:01.118Z,3.92
2022-09-07T20:38:52.205Z,3.63
2022-09-07T20:41:40.056Z,3.30
2022-09-07T20:44:27.085Z,3.30
2022-09-07T20:47:14.067Z,4.55
2022-09-07T20:49:54.202Z,3.55
2022-09-07T20:52:41.052Z,3.67
2022-09-07T20:55:28.062Z,3.63
2022-09-07T20:58:15.065Z,3.75
2022-09-07T21:01:06.044Z,3.95
2022-09-07T21:03:49.391Z,3.90
2022-09-07T21:06:37.063Z,3.63
2022-09-07T21:09:17.583Z,4.00
2022-09-07T21:12:04.055Z,3.20
2022-09-07T21:14:46.080Z,3.60
2022-09-07T21:17:33.042Z,3.70
2022-09-07T21:20:13.569Z,4.05
2022-09-07T21:23:00.003Z,3.95
2022-09-07T21:25:51.035Z,3.72
2022-09-07T21:28:45.044Z,3.97
2022-09-07T21:31:26.324Z,4.57
2022-09-07T21:34:15.022Z,4.45
2022-09-07T21:37:02.008Z,4.55
2022-09-07T21:39:49.021Z,4.47
2022-09-07T21:42:35.995Z,4.47
2022-09-07T21:45:23.002Z,4.75
2022-09-07T21:48:03.522Z,4.25
2022-09-07T21:50:50.000Z,4.53
2022-09-07T21:53:36.982Z,4.15
2022-09-07T21:56:27.023Z,4.65
2022-09-07T21:59:07.371Z,3.42
2022-09-07T22:01:54.045Z,4.00
2022-09-07T22:04:40.969Z,4.03
2022-09-07T22:07:27.989Z,4.25
2022-09-07T22:10:09.761Z,4.05
2022-09-07T22:12:57.232Z,5.45
2022-09-07T22:15:45.991Z,5.03
2022-09-07T22:18:26.157Z,6.22
2022-09-07T22:21:23.968Z,4.95
2022-09-07T22:24:13.965Z,5.90
2022-09-07T22:27:01.061Z,5.13
2022-09-07T22:29:40.961Z,6.53
2022-09-07T22:32:28.033Z,5.68
2022-09-07T22:35:14.971Z,6.28
2022-09-07T22:37:56.387Z,7.18
2022-09-07T22:40:42.945Z,6.60
2022-09-07T22:43:23.299Z,7.32
2022-09-07T22:46:09.995Z,7.22
2022-09-07T22:48:50.670Z,7.03
2022-09-07T22:51:37.918Z,6.68
2022-09-07T22:54:18.457Z,6.80
2022-09-07T22:57:05.009Z,6.30
2022-09-07T22:59:45.309Z,6.20
2022-09-07T23:02:31.906Z,5.03
2022-09-07T23:05:18.977Z,6.32
2022-09-07T23:07:59.051Z,5.57
2022-09-07T23:10:45.891Z,4.15
2022-09-07T23:13:27.091Z,5.03
2022-09-07T23:16:13.953Z,5.13
2022-09-07T23:19:00.925Z,4.53
2022-09-07T23:21:41.833Z,4.63
2022-09-07T23:24:30.871Z,4.63
2022-09-07T23:27:24.938Z,3.22
2022-09-07T23:30:13.879Z,4.03
2022-09-07T23:33:00.938Z,4.00
2022-09-07T23:35:47.906Z,3.17
2022-09-07T23:38:34.902Z,3.33
2022-09-07T23:41:23.046Z,3.60
2022-09-07T23:44:03.859Z,3.60
2022-09-07T23:46:50.960Z,3.38
2022-09-07T23:49:31.091Z,4.00
2022-09-07T23:52:17.929Z,3.92
2022-09-07T23:55:04.864Z,3.67
2022-09-07T23:57:45.298Z,3.83
